Aircraft
UPR1004 PR-ACC A320
SBSP
Congonhas Airport
SBRJ
Santos Dumont Airport
Pilot:: Jair
Aircraft:: A320neo V2
Alternate: SBGR
Network: ivao
FLIGHT DETAILS
Distance: 197nm Duration 00h 40m
Cruise Speed: Flight Level: 24000
Validation: Validated Type Charter
Flight Fuel
ZFW: 42305
Block Fuel/Initial FOB: 9720
Flight Fuel: 0
Cargo
Passengers: 145
Cargo: 12400
ROUTE
ROUTE: sbsp dc sbrj
REMARKS:
DATE
Date: 26-09-05
Departure Time: 1051
Cargo: 12400
FLIGHT DETAILS
Crashed: No
Validator Comments: Validado por Rafael
Flight Rating: 100
LANDING ANALYSIS
Landing wind: 159º/4 kt
Landing heading: 198º
Landing VS:: -212 ft/min
Landing IAS:: 135 kt
Landing Force G: 1 G
Landing Bank: 0
Landing Pitch: -3
Landing Flaps: 100
Navigation Lights: ON
Landing Lights: ON
Beacon Lights: ON
Strobe Lights: ON
viserfly

ALTITUDE CHART

viserfly

MAIN EVENTS

DATE EVENT IAS ALTITUDE
2026-09-05 10:50:52 FLYacars version 1.3.6 3 2599
2026-09-05 10:50:52 Aircraft boarding in progress 3 2599
2026-09-05 10:50:52 FLAPS 25% 3 2599
2026-09-05 10:50:52 Navigation Lights ON 3 2599
2026-09-05 10:50:52 Beacon Lights ON 3 2599
2026-09-05 10:50:52 Strobe Lights ON 3 2599
2026-09-05 10:50:52 Landing Lights ON 3 2599
2026-09-05 10:50:52 Taxi Lights ON 3 2599
2026-09-05 10:50:52 Starting Engine 2 3 2599
2026-09-05 10:50:52 Starting Engine 1 3 2599
2026-09-05 10:51:13 Aircraft taxiing to runway 8 2599
2026-09-05 10:51:36 Detected Take-off roll, HDG 176, IAS 135kt, GS 140kt, G-force 1.0g, Pitch -5.5deg, Bank -0.6deg, Wind 109/05kt, Temp 16°C 135 2612
2026-09-05 10:51:36 Airborne 135 2612
2026-09-05 10:51:40 Gear UP, IAS 147kt, GS 151kt, ALT 82ft AGL 147 2683
2026-09-05 10:51:40 Gear DOWN, IAS 147kt, GS 151kt, ALT 86ft AGL 147 2685
2026-09-05 10:51:44 Taxi Lights OFF 151 2855
2026-09-05 10:51:56 Gear UP, IAS 158kt, GS 163kt, ALT 956ft AGL 158 3545
2026-09-05 10:52:14 FLAPS 0% 175kt, ALT 4448ft 175 4448
2026-09-05 10:54:12 Landing Lights OFF 250 10561
2026-09-05 10:59:06 Aircraft on Top Of Climb at 24645ft, IAS 279kt, GS 465kt, HDG 102deg, TAT -20deg, WIND 263/57kt 279 24645
2026-09-05 11:10:36 Aircraft on Top Of Descent at 23496ft, IAS 284kt, GS 460kt, HDG 103deg, TAT -18deg, WIND 255/54kt 284 23496
2026-09-05 11:17:27 Landing Lights ON 237 9885
2026-09-05 11:17:55 Simulator Paused 235 8980
2026-09-05 11:18:06 Simulator Un-Paused 235 8978
2026-09-05 11:18:11 Simulator Paused 235 8806
2026-09-05 11:18:51 Simulator Un-Paused 235 8800
2026-09-05 11:22:24 FLAPS 25% 186kt, ALT 3071ft 186 3071
2026-09-05 11:23:15 Gear DOWN, IAS 158kt, GS 162kt, ALT 3074ft AGL 158 3074
2026-09-05 11:23:21 Taxi Lights ON 156 3066
2026-09-05 11:23:47 FLAPS 50% 147kt, ALT 3061ft 147 3061
2026-09-05 11:24:30 FLAPS 75% 136kt, ALT 3075ft 136 3075
2026-09-05 11:24:31 FLAPS 100% 136kt, ALT 3075ft 136 3075
2026-09-05 11:31:54 Landed at destination with a landing rate of -212fpm, G-force 1.0g, Pitch -2.5deg, Bank -0.4deg, HDG 198deg, IAS 135kt, GS 133kt, Wind 159/04kt, Temp 21°C 135 29
2026-09-05 11:32:13 Aircraft taxiing to apron 29 23
2026-09-05 11:32:15 FLAPS 75% 11 23
2026-09-05 11:32:16 FLAPS 25% 9 23
2026-09-05 11:32:16 FLAPS 0% 9 23
2026-09-05 11:32:32 Landing Lights OFF 2 23
2026-09-05 11:35:47 Strobe Lights OFF 0 25
2026-09-05 11:36:00 Aircraft at gate/stand, ground services are moving into position, disembarkation has begun. Remaining FOB 9720kg FLYacars v1.3.6 0 25
viserfly

ACARS DATA

DATE IAS GS ALTITUDE FUEL CONSUMED OAT FLIGHT STATUS
2026-09-05 10:51:22 57 57 2602 0 16 TAKEOFF
2026-09-05 10:51:52 158 162 3278 0 15 TAKEOFF
2026-09-05 10:52:22 193 216 4597 0 15 INITIAL CLIMB
2026-09-05 10:52:52 242 272 5589 0 14 CLIMB
2026-09-05 10:53:22 247 294 7337 0 12 CLIMB
2026-09-05 10:53:52 248 316 9280 0 8 CLIMB
2026-09-05 10:54:22 262 345 10925 0 5 CLIMB
2026-09-05 10:54:52 279 373 12399 0 2 CLIMB
2026-09-05 10:55:22 280 386 14266 0 -1 CLIMB
2026-09-05 10:55:52 280 399 16060 0 -4 CLIMB
2026-09-05 10:56:22 280 411 17728 0 -7 CLIMB
2026-09-05 10:56:52 280 422 19291 0 -10 CLIMB
2026-09-05 10:57:22 280 433 20775 0 -13 CLIMB
2026-09-05 10:57:52 281 444 22120 0 -15 CLIMB
2026-09-05 10:58:22 280 455 23459 0 -18 CLIMB
2026-09-05 10:58:52 279 463 24498 0 -20 CLIMB
2026-09-05 10:59:22 280 466 24670 0 -20 ENROUTE
2026-09-05 10:59:52 282 468 24672 0 -20 ENROUTE
2026-09-05 11:00:22 281 469 24674 0 -20 ENROUTE
2026-09-05 11:00:52 281 469 24674 0 -20 ENROUTE
2026-09-05 11:01:22 282 469 24672 0 -20 ENROUTE
2026-09-05 11:01:52 282 468 24682 0 -20 ENROUTE
2026-09-05 11:02:22 282 467 24681 0 -20 ENROUTE
2026-09-05 11:02:52 283 467 24684 0 -20 ENROUTE
2026-09-05 11:03:22 282 467 24686 0 -20 ENROUTE
2026-09-05 11:03:52 282 466 24685 0 -20 ENROUTE
2026-09-05 11:04:22 282 466 24685 0 -20 ENROUTE
2026-09-05 11:04:52 282 466 24693 0 -20 ENROUTE
2026-09-05 11:05:22 282 466 24693 0 -20 ENROUTE
2026-09-05 11:05:52 281 466 24692 0 -20 ENROUTE
2026-09-05 11:06:22 282 466 24691 0 -20 ENROUTE
2026-09-05 11:06:52 282 466 24692 0 -20 ENROUTE
2026-09-05 11:07:22 281 467 24678 0 -20 ENROUTE
2026-09-05 11:07:52 281 468 24679 0 -20 ENROUTE
2026-09-05 11:08:22 282 468 24679 0 -20 ENROUTE
2026-09-05 11:08:52 281 467 24673 0 -20 ENROUTE
2026-09-05 11:09:22 282 468 24679 0 -20 ENROUTE
2026-09-05 11:09:52 282 468 24678 0 -20 ENROUTE
2026-09-05 11:10:22 284 464 23973 0 -19 DESCENT
2026-09-05 11:10:52 283 454 22982 0 -17 DESCENT
2026-09-05 11:11:22 283 444 21984 0 -15 DESCENT
2026-09-05 11:11:52 282 435 20988 0 -13 DESCENT
2026-09-05 11:12:22 282 427 19992 0 -11 DESCENT
2026-09-05 11:12:52 282 420 18995 0 -9 DESCENT
2026-09-05 11:13:22 281 413 17999 0 -7 DESCENT
2026-09-05 11:13:52 281 406 17003 0 -6 DESCENT
2026-09-05 11:14:22 280 399 16005 0 -4 DESCENT
2026-09-05 11:14:52 263 373 15014 0 -2 DESCENT
2026-09-05 11:15:22 250 351 14030 0 0 DESCENT
2026-09-05 11:15:52 244 337 13041 0 1 DESCENT
2026-09-05 11:16:22 248 334 12048 0 3 DESCENT
2026-09-05 11:16:52 242 320 11050 0 4 DESCENT
2026-09-05 11:17:22 237 309 10055 0 6 DESCENT
2026-09-05 11:17:52 235 298 9065 0 8 DESCENT
2026-09-05 11:18:22 235 295 8806 0 9 DESCENT
2026-09-05 11:18:52 234 295 8775 0 9 DESCENT
2026-09-05 11:19:22 234 285 7779 0 11 DESCENT
2026-09-05 11:19:52 234 276 6781 0 13 DESCENT
2026-09-05 11:20:22 232 268 5782 0 15 DESCENT
2026-09-05 11:20:52 232 260 4787 0 16 DESCENT
2026-09-05 11:21:22 235 252 3791 0 16 DESCENT
2026-09-05 11:21:52 223 232 3100 0 16 DESCENT
2026-09-05 11:22:22 187 196 3072 0 16 ENROUTE
2026-09-05 11:22:52 161 166 3081 0 16 ENROUTE
2026-09-05 11:23:22 156 161 3066 0 16 ENROUTE
2026-09-05 11:23:52 144 146 3073 0 16 ENROUTE
2026-09-05 11:24:22 134 139 3069 0 16 ENROUTE
2026-09-05 11:24:52 129 133 3095 0 16 ENROUTE
2026-09-05 11:25:22 132 134 3032 0 16 DESCENT
2026-09-05 11:25:52 127 130 2830 0 16 DESCENT
2026-09-05 11:26:22 126 132 2498 0 17 DESCENT
2026-09-05 11:26:52 127 131 2359 0 17 ENROUTE
2026-09-05 11:27:22 127 130 2386 0 17 ENROUTE
2026-09-05 11:27:52 126 131 2425 0 17 ENROUTE
2026-09-05 11:28:22 127 133 2504 0 17 ENROUTE
2026-09-05 11:28:52 127 134 2525 0 17 ENROUTE
2026-09-05 11:29:22 127 135 2541 0 17 ENROUTE
2026-09-05 11:29:52 126 137 2469 0 17 ENROUTE
2026-09-05 11:30:22 127 139 2340 0 17 ENROUTE
2026-09-05 11:30:52 142 148 1578 0 19 APPROACH
2026-09-05 11:31:22 149 149 630 0 21 ON FINAL
2026-09-05 11:31:52 137 135 35 0 21 ON FINAL
2026-09-05 11:32:22 7 5 23 0 21 TAXI TO APRON
2026-09-05 11:32:52 0 5 23 0 21 TAXI TO APRON
2026-09-05 11:33:22 3 7 23 0 21 TAXI TO APRON
2026-09-05 11:33:52 2 7 25 0 21 TAXI TO APRON
2026-09-05 11:34:22 3 8 25 0 21 TAXI TO APRON
2026-09-05 11:34:52 1 3 25 0 21 TAXI TO APRON
2026-09-05 11:35:22 0 2 25 0 21 TAXI TO APRON
2026-09-05 11:35:52 0 0 25 0 21 TAXI TO APRON
  • Join our VA!

    It has been 11 years of great learning, friendships, and stories.

  • Sign up now!